sensor_id;sensor_type;location;lat;lon;timestamp;P1;durP1;ratioP1;P2;durP2;ratioP2
18104;SDS011;9179;50.968;3.134;2023-11-21T00:00:45;8.70;;;7.80;;
18104;SDS011;9179;50.968;3.134;2023-11-21T00:03:12;8.82;;;7.95;;
18104;SDS011;9179;50.968;3.134;2023-11-21T00:05:40;7.95;;;7.15;;
18104;SDS011;9179;50.968;3.134;2023-11-21T00:08:09;8.63;;;6.88;;
18104;SDS011;9179;50.968;3.134;2023-11-21T00:10:36;10.65;;;7.82;;
18104;SDS011;9179;50.968;3.134;2023-11-21T00:13:04;12.23;;;6.80;;
18104;SDS011;9179;50.968;3.134;2023-11-21T00:15:31;7.60;;;6.82;;
18104;SDS011;9179;50.968;3.134;2023-11-21T00:17:59;10.15;;;7.35;;
18104;SDS011;9179;50.968;3.134;2023-11-21T00:20:26;7.57;;;6.82;;
18104;SDS011;9179;50.968;3.134;2023-11-21T00:22:53;7.35;;;6.65;;
18104;SDS011;9179;50.968;3.134;2023-11-21T00:25:22;7.82;;;7.03;;
18104;SDS011;9179;50.968;3.134;2023-11-21T00:27:50;7.30;;;6.55;;
18104;SDS011;9179;50.968;3.134;2023-11-21T00:30:17;7.22;;;6.53;;
18104;SDS011;9179;50.968;3.134;2023-11-21T00:32:45;13.98;;;8.18;;
18104;SDS011;9179;50.968;3.134;2023-11-21T00:35:12;7.30;;;6.00;;
18104;SDS011;9179;50.968;3.134;2023-11-21T00:37:39;7.80;;;7.03;;
18104;SDS011;9179;50.968;3.134;2023-11-21T00:40:08;7.57;;;6.85;;
18104;SDS011;9179;50.968;3.134;2023-11-21T00:42:37;9.23;;;6.32;;
18104;SDS011;9179;50.968;3.134;2023-11-21T00:45:05;7.22;;;5.93;;
18104;SDS011;9179;50.968;3.134;2023-11-21T00:47:33;8.25;;;6.47;;
18104;SDS011;9179;50.968;3.134;2023-11-21T00:50:00;7.15;;;6.43;;
18104;SDS011;9179;50.968;3.134;2023-11-21T00:52:27;11.40;;;6.82;;
18104;SDS011;9179;50.968;3.134;2023-11-21T00:54:55;8.65;;;7.10;;
18104;SDS011;9179;50.968;3.134;2023-11-21T00:57:24;8.23;;;5.95;;
18104;SDS011;9179;50.968;3.134;2023-11-21T00:59:52;7.70;;;6.82;;
18104;SDS011;9179;50.968;3.134;2023-11-21T01:02:19;7.10;;;6.40;;
18104;SDS011;9179;50.968;3.134;2023-11-21T01:04:46;7.72;;;6.93;;
18104;SDS011;9179;50.968;3.134;2023-11-21T01:07:13;7.75;;;6.53;;
18104;SDS011;9179;50.968;3.134;2023-11-21T01:09:40;9.45;;;6.88;;
18104;SDS011;9179;50.968;3.134;2023-11-21T01:12:09;11.77;;;7.03;;
18104;SDS011;9179;50.968;3.134;2023-11-21T01:14:36;8.63;;;7.13;;
18104;SDS011;9179;50.968;3.134;2023-11-21T01:17:05;10.57;;;7.50;;
18104;SDS011;9179;50.968;3.134;2023-11-21T01:19:32;10.50;;;6.60;;
18104;SDS011;9179;50.968;3.134;2023-11-21T01:21:59;9.45;;;6.93;;
18104;SDS011;9179;50.968;3.134;2023-11-21T01:24:26;6.93;;;6.20;;
18104;SDS011;9179;50.968;3.134;2023-11-21T01:26:53;8.00;;;6.72;;
18104;SDS011;9179;50.968;3.134;2023-11-21T01:29:20;9.75;;;6.03;;
18104;SDS011;9179;50.968;3.134;2023-11-21T01:31:47;9.60;;;6.32;;
18104;SDS011;9179;50.968;3.134;2023-11-21T01:34:16;10.82;;;7.53;;
18104;SDS011;9179;50.968;3.134;2023-11-21T01:36:43;8.02;;;6.18;;
18104;SDS011;9179;50.968;3.134;2023-11-21T01:39:12;8.98;;;6.53;;
18104;SDS011;9179;50.968;3.134;2023-11-21T01:41:41;7.30;;;6.60;;
18104;SDS011;9179;50.968;3.134;2023-11-21T01:44:09;7.72;;;6.28;;
18104;SDS011;9179;50.968;3.134;2023-11-21T01:46:37;10.05;;;7.18;;
18104;SDS011;9179;50.968;3.134;2023-11-21T01:49:05;8.40;;;5.72;;
18104;SDS011;9179;50.968;3.134;2023-11-21T01:51:35;7.90;;;6.25;;
18104;SDS011;9179;50.968;3.134;2023-11-21T01:54:03;10.02;;;6.35;;
18104;SDS011;9179;50.968;3.134;2023-11-21T01:56:31;10.30;;;6.65;;
18104;SDS011;9179;50.968;3.134;2023-11-21T01:58:59;6.80;;;5.50;;
18104;SDS011;9179;50.968;3.134;2023-11-21T02:01:26;7.72;;;6.43;;
18104;SDS011;9179;50.968;3.134;2023-11-21T02:03:53;8.00;;;6.18;;
18104;SDS011;9179;50.968;3.134;2023-11-21T02:06:20;8.10;;;5.70;;
18104;SDS011;9179;50.968;3.134;2023-11-21T02:08:50;6.95;;;5.50;;
18104;SDS011;9179;50.968;3.134;2023-11-21T02:11:18;6.50;;;5.28;;
18104;SDS011;9179;50.968;3.134;2023-11-21T02:13:45;5.20;;;4.70;;
18104;SDS011;9179;50.968;3.134;2023-11-21T02:16:15;6.22;;;5.63;;
18104;SDS011;9179;50.968;3.134;2023-11-21T02:18:42;9.38;;;5.90;;
18104;SDS011;9179;50.968;3.134;2023-11-21T02:21:09;7.90;;;5.63;;
18104;SDS011;9179;50.968;3.134;2023-11-21T02:23:37;5.97;;;5.38;;
18104;SDS011;9179;50.968;3.134;2023-11-21T02:26:09;10.32;;;6.10;;
18104;SDS011;9179;50.968;3.134;2023-11-21T02:28:36;6.35;;;5.32;;
18104;SDS011;9179;50.968;3.134;2023-11-21T02:31:04;8.85;;;6.60;;
18104;SDS011;9179;50.968;3.134;2023-11-21T02:33:32;7.97;;;6.40;;
18104;SDS011;9179;50.968;3.134;2023-11-21T02:36:00;7.40;;;6.00;;
18104;SDS011;9179;50.968;3.134;2023-11-21T02:38:27;9.88;;;6.57;;
18104;SDS011;9179;50.968;3.134;2023-11-21T02:40:57;6.63;;;5.85;;
18104;SDS011;9179;50.968;3.134;2023-11-21T02:43:24;9.05;;;8.10;;
18104;SDS011;9179;50.968;3.134;2023-11-21T02:45:51;8.98;;;6.90;;
18104;SDS011;9179;50.968;3.134;2023-11-21T02:48:18;8.70;;;7.35;;
18104;SDS011;9179;50.968;3.134;2023-11-21T02:50:45;8.75;;;7.70;;
18104;SDS011;9179;50.968;3.134;2023-11-21T02:53:13;9.50;;;8.52;;
18104;SDS011;9179;50.968;3.134;2023-11-21T02:55:40;10.18;;;7.90;;
18104;SDS011;9179;50.968;3.134;2023-11-21T02:58:08;9.40;;;7.53;;
18104;SDS011;9179;50.968;3.134;2023-11-21T03:00:35;11.50;;;7.85;;
18104;SDS011;9179;50.968;3.134;2023-11-21T03:03:02;10.48;;;8.02;;
18104;SDS011;9179;50.968;3.134;2023-11-21T03:05:29;9.05;;;8.13;;
18104;SDS011;9179;50.968;3.134;2023-11-21T03:07:56;11.07;;;7.70;;
18104;SDS011;9179;50.968;3.134;2023-11-21T03:10:23;8.73;;;7.85;;
18104;SDS011;9179;50.968;3.134;2023-11-21T03:12:50;9.43;;;7.93;;
18104;SDS011;9179;50.968;3.134;2023-11-21T03:15:19;9.57;;;7.22;;
18104;SDS011;9179;50.968;3.134;2023-11-21T03:17:46;9.07;;;7.88;;
18104;SDS011;9179;50.968;3.134;2023-11-21T03:20:14;9.63;;;8.13;;
18104;SDS011;9179;50.968;3.134;2023-11-21T03:22:41;8.43;;;7.63;;
18104;SDS011;9179;50.968;3.134;2023-11-21T03:25:08;8.23;;;7.18;;
18104;SDS011;9179;50.968;3.134;2023-11-21T03:27:36;8.57;;;7.30;;
18104;SDS011;9179;50.968;3.134;2023-11-21T03:30:05;8.40;;;7.15;;
18104;SDS011;9179;50.968;3.134;2023-11-21T03:32:36;7.95;;;7.15;;
18104;SDS011;9179;50.968;3.134;2023-11-21T03:35:03;8.68;;;7.80;;
18104;SDS011;9179;50.968;3.134;2023-11-21T03:37:31;9.50;;;6.95;;
18104;SDS011;9179;50.968;3.134;2023-11-21T03:39:58;8.57;;;7.40;;
18104;SDS011;9179;50.968;3.134;2023-11-21T03:42:25;9.02;;;7.43;;
18104;SDS011;9179;50.968;3.134;2023-11-21T03:44:52;8.77;;;7.88;;
18104;SDS011;9179;50.968;3.134;2023-11-21T03:47:19;8.85;;;7.80;;
18104;SDS011;9179;50.968;3.134;2023-11-21T03:49:48;13.00;;;8.50;;
18104;SDS011;9179;50.968;3.134;2023-11-21T03:52:15;9.77;;;8.35;;
18104;SDS011;9179;50.968;3.134;2023-11-21T03:54:42;9.02;;;7.43;;
18104;SDS011;9179;50.968;3.134;2023-11-21T03:57:09;9.35;;;7.70;;
18104;SDS011;9179;50.968;3.134;2023-11-21T03:59:36;7.95;;;7.15;;
18104;SDS011;9179;50.968;3.134;2023-11-21T04:02:06;8.55;;;7.25;;
18104;SDS011;9179;50.968;3.134;2023-11-21T04:04:34;7.03;;;6.32;;
18104;SDS011;9179;50.968;3.134;2023-11-21T04:07:02;6.55;;;6.00;;
18104;SDS011;9179;50.968;3.134;2023-11-21T04:09:29;6.53;;;5.80;;
18104;SDS011;9179;50.968;3.134;2023-11-21T04:11:56;5.45;;;5.00;;
18104;SDS011;9179;50.968;3.134;2023-11-21T04:14:24;6.50;;;5.90;;
18104;SDS011;9179;50.968;3.134;2023-11-21T04:16:50;6.57;;;5.90;;
18104;SDS011;9179;50.968;3.134;2023-11-21T04:19:18;5.82;;;5.22;;
18104;SDS011;9179;50.968;3.134;2023-11-21T04:21:45;5.13;;;4.72;;
18104;SDS011;9179;50.968;3.134;2023-11-21T04:24:14;4.82;;;4.43;;
18104;SDS011;9179;50.968;3.134;2023-11-21T04:26:41;5.45;;;4.95;;
18104;SDS011;9179;50.968;3.134;2023-11-21T04:29:08;5.43;;;4.93;;
18104;SDS011;9179;50.968;3.134;2023-11-21T04:31:35;4.65;;;4.30;;
18104;SDS011;9179;50.968;3.134;2023-11-21T04:34:02;6.00;;;5.50;;
18104;SDS011;9179;50.968;3.134;2023-11-21T04:36:30;5.32;;;4.82;;
18104;SDS011;9179;50.968;3.134;2023-11-21T04:38:57;4.72;;;4.30;;
18104;SDS011;9179;50.968;3.134;2023-11-21T04:41:26;5.03;;;4.60;;
18104;SDS011;9179;50.968;3.134;2023-11-21T04:43:53;4.53;;;4.13;;
18104;SDS011;9179;50.968;3.134;2023-11-21T04:46:20;5.47;;;4.97;;
18104;SDS011;9179;50.968;3.134;2023-11-21T04:48:47;5.35;;;4.85;;
18104;SDS011;9179;50.968;3.134;2023-11-21T04:51:14;5.57;;;5.07;;
18104;SDS011;9179;50.968;3.134;2023-11-21T04:53:41;4.60;;;4.18;;
18104;SDS011;9179;50.968;3.134;2023-11-21T04:56:08;4.38;;;3.90;;
18104;SDS011;9179;50.968;3.134;2023-11-21T04:58:37;4.72;;;4.32;;
18104;SDS011;9179;50.968;3.134;2023-11-21T05:01:05;6.85;;;4.45;;
18104;SDS011;9179;50.968;3.134;2023-11-21T05:03:33;5.78;;;4.35;;
18104;SDS011;9179;50.968;3.134;2023-11-21T05:06:00;5.68;;;4.38;;
18104;SDS011;9179;50.968;3.134;2023-11-21T05:08:30;4.75;;;4.30;;
18104;SDS011;9179;50.968;3.134;2023-11-21T05:10:57;5.53;;;4.07;;
18104;SDS011;9179;50.968;3.134;2023-11-21T05:13:24;4.45;;;4.03;;
18104;SDS011;9179;50.968;3.134;2023-11-21T05:15:54;4.82;;;4.18;;
18104;SDS011;9179;50.968;3.134;2023-11-21T05:18:21;5.13;;;4.60;;
18104;SDS011;9179;50.968;3.134;2023-11-21T05:20:51;4.13;;;3.72;;
18104;SDS011;9179;50.968;3.134;2023-11-21T05:23:18;5.32;;;4.82;;
18104;SDS011;9179;50.968;3.134;2023-11-21T05:25:45;4.85;;;4.32;;
18104;SDS011;9179;50.968;3.134;2023-11-21T05:28:12;6.28;;;4.28;;
18104;SDS011;9179;50.968;3.134;2023-11-21T05:30:39;4.57;;;4.10;;
18104;SDS011;9179;50.968;3.134;2023-11-21T05:33:08;5.38;;;4.88;;
18104;SDS011;9179;50.968;3.134;2023-11-21T05:35:35;5.50;;;4.70;;
18104;SDS011;9179;50.968;3.134;2023-11-21T05:38:02;5.72;;;4.90;;
18104;SDS011;9179;50.968;3.134;2023-11-21T05:40:30;6.13;;;5.47;;
18104;SDS011;9179;50.968;3.134;2023-11-21T05:42:58;5.32;;;4.80;;
18104;SDS011;9179;50.968;3.134;2023-11-21T05:45:25;5.68;;;5.13;;
18104;SDS011;9179;50.968;3.134;2023-11-21T05:47:54;5.57;;;5.07;;
18104;SDS011;9179;50.968;3.134;2023-11-21T05:50:22;8.43;;;7.38;;
18104;SDS011;9179;50.968;3.134;2023-11-21T05:52:49;5.93;;;5.22;;
18104;SDS011;9179;50.968;3.134;2023-11-21T05:55:16;6.40;;;5.28;;
18104;SDS011;9179;50.968;3.134;2023-11-21T05:57:46;7.25;;;6.47;;
18104;SDS011;9179;50.968;3.134;2023-11-21T06:00:14;8.55;;;5.95;;
18104;SDS011;9179;50.968;3.134;2023-11-21T06:02:45;9.10;;;6.38;;
18104;SDS011;9179;50.968;3.134;2023-11-21T06:05:12;8.45;;;7.50;;
18104;SDS011;9179;50.968;3.134;2023-11-21T06:07:41;7.20;;;5.43;;
18104;SDS011;9179;50.968;3.134;2023-11-21T06:10:08;9.15;;;6.47;;
18104;SDS011;9179;50.968;3.134;2023-11-21T06:12:38;8.55;;;6.32;;
18104;SDS011;9179;50.968;3.134;2023-11-21T06:15:08;8.23;;;6.30;;
18104;SDS011;9179;50.968;3.134;2023-11-21T06:17:38;7.85;;;5.90;;
18104;SDS011;9179;50.968;3.134;2023-11-21T06:20:06;9.77;;;8.55;;
18104;SDS011;9179;50.968;3.134;2023-11-21T06:22:36;9.50;;;7.70;;
18104;SDS011;9179;50.968;3.134;2023-11-21T06:25:05;9.95;;;7.60;;
18104;SDS011;9179;50.968;3.134;2023-11-21T06:27:33;8.73;;;7.30;;
18104;SDS011;9179;50.968;3.134;2023-11-21T06:30:01;8.38;;;6.85;;
18104;SDS011;9179;50.968;3.134;2023-11-21T06:32:29;8.45;;;6.78;;
18104;SDS011;9179;50.968;3.134;2023-11-21T06:34:56;8.95;;;6.97;;
18104;SDS011;9179;50.968;3.134;2023-11-21T06:37:24;7.95;;;6.45;;
18104;SDS011;9179;50.968;3.134;2023-11-21T06:39:51;9.30;;;6.85;;
18104;SDS011;9179;50.968;3.134;2023-11-21T06:42:20;9.27;;;7.72;;
18104;SDS011;9179;50.968;3.134;2023-11-21T06:44:47;8.20;;;7.35;;
18104;SDS011;9179;50.968;3.134;2023-11-21T06:47:16;9.23;;;7.60;;
18104;SDS011;9179;50.968;3.134;2023-11-21T06:49:46;9.55;;;7.63;;
18104;SDS011;9179;50.968;3.134;2023-11-21T06:52:14;8.00;;;7.20;;
18104;SDS011;9179;50.968;3.134;2023-11-21T06:54:41;8.50;;;6.75;;
18104;SDS011;9179;50.968;3.134;2023-11-21T06:57:08;10.27;;;7.60;;
18104;SDS011;9179;50.968;3.134;2023-11-21T06:59:36;7.90;;;6.82;;
18104;SDS011;9179;50.968;3.134;2023-11-21T07:02:04;9.57;;;6.95;;
18104;SDS011;9179;50.968;3.134;2023-11-21T07:04:31;6.15;;;5.55;;
18104;SDS011;9179;50.968;3.134;2023-11-21T07:06:58;6.82;;;5.90;;
18104;SDS011;9179;50.968;3.134;2023-11-21T07:09:26;7.10;;;6.40;;
18104;SDS011;9179;50.968;3.134;2023-11-21T07:11:53;6.90;;;6.30;;
18104;SDS011;9179;50.968;3.134;2023-11-21T07:14:20;7.20;;;6.50;;
18104;SDS011;9179;50.968;3.134;2023-11-21T07:16:48;6.93;;;6.07;;
18104;SDS011;9179;50.968;3.134;2023-11-21T07:19:17;6.18;;;5.55;;
18104;SDS011;9179;50.968;3.134;2023-11-21T07:21:45;6.38;;;4.85;;
18104;SDS011;9179;50.968;3.134;2023-11-21T07:24:12;6.05;;;5.43;;
18104;SDS011;9179;50.968;3.134;2023-11-21T07:26:39;7.88;;;5.65;;
18104;SDS011;9179;50.968;3.134;2023-11-21T07:29:06;8.43;;;6.03;;
18104;SDS011;9179;50.968;3.134;2023-11-21T07:31:33;5.90;;;5.20;;
18104;SDS011;9179;50.968;3.134;2023-11-21T07:34:01;5.88;;;5.28;;
18104;SDS011;9179;50.968;3.134;2023-11-21T07:36:28;7.10;;;6.03;;
18104;SDS011;9179;50.968;3.134;2023-11-21T07:38:55;5.35;;;4.85;;
18104;SDS011;9179;50.968;3.134;2023-11-21T07:41:22;5.78;;;5.07;;
18104;SDS011;9179;50.968;3.134;2023-11-21T07:43:49;5.00;;;4.60;;
18104;SDS011;9179;50.968;3.134;2023-11-21T07:46:16;4.75;;;4.32;;
18104;SDS011;9179;50.968;3.134;2023-11-21T07:48:45;5.20;;;4.68;;
18104;SDS011;9179;50.968;3.134;2023-11-21T07:51:13;4.90;;;4.47;;
18104;SDS011;9179;50.968;3.134;2023-11-21T07:53:40;5.70;;;4.43;;
18104;SDS011;9179;50.968;3.134;2023-11-21T07:56:08;6.97;;;4.95;;
18104;SDS011;9179;50.968;3.134;2023-11-21T07:58:35;8.13;;;6.18;;
18104;SDS011;9179;50.968;3.134;2023-11-21T08:01:02;11.00;;;6.93;;
18104;SDS011;9179;50.968;3.134;2023-11-21T08:03:30;9.23;;;6.75;;
18104;SDS011;9179;50.968;3.134;2023-11-21T08:05:57;8.98;;;6.53;;
18104;SDS011;9179;50.968;3.134;2023-11-21T08:08:26;6.43;;;5.82;;
18104;SDS011;9179;50.968;3.134;2023-11-21T08:10:53;7.28;;;6.57;;
18104;SDS011;9179;50.968;3.134;2023-11-21T08:13:22;9.00;;;7.38;;
18104;SDS011;9179;50.968;3.134;2023-11-21T08:15:49;7.13;;;6.40;;
18104;SDS011;9179;50.968;3.134;2023-11-21T08:18:17;8.30;;;6.95;;
18104;SDS011;9179;50.968;3.134;2023-11-21T08:20:44;6.70;;;6.00;;
18104;SDS011;9179;50.968;3.134;2023-11-21T08:23:12;10.00;;;7.63;;
18104;SDS011;9179;50.968;3.134;2023-11-21T08:25:43;9.32;;;5.75;;
18104;SDS011;9179;50.968;3.134;2023-11-21T08:28:10;9.57;;;6.07;;
18104;SDS011;9179;50.968;3.134;2023-11-21T08:30:38;16.60;;;8.18;;
18104;SDS011;9179;50.968;3.134;2023-11-21T08:33:06;14.25;;;8.57;;
18104;SDS011;9179;50.968;3.134;2023-11-21T08:35:34;8.68;;;6.63;;
18104;SDS011;9179;50.968;3.134;2023-11-21T08:38:02;13.27;;;6.80;;
18104;SDS011;9179;50.968;3.134;2023-11-21T08:40:29;5.88;;;5.38;;
18104;SDS011;9179;50.968;3.134;2023-11-21T08:42:58;6.15;;;5.07;;
18104;SDS011;9179;50.968;3.134;2023-11-21T08:45:25;6.43;;;5.78;;
18104;SDS011;9179;50.968;3.134;2023-11-21T08:47:52;8.02;;;5.10;;
18104;SDS011;9179;50.968;3.134;2023-11-21T08:50:19;5.38;;;4.85;;
18104;SDS011;9179;50.968;3.134;2023-11-21T08:52:47;7.35;;;5.40;;
18104;SDS011;9179;50.968;3.134;2023-11-21T08:55:14;5.05;;;4.65;;
18104;SDS011;9179;50.968;3.134;2023-11-21T08:57:43;6.13;;;4.63;;
18104;SDS011;9179;50.968;3.134;2023-11-21T09:00:13;4.85;;;4.20;;
18104;SDS011;9179;50.968;3.134;2023-11-21T09:02:42;5.22;;;4.70;;
18104;SDS011;9179;50.968;3.134;2023-11-21T09:05:09;4.50;;;4.00;;
18104;SDS011;9179;50.968;3.134;2023-11-21T09:07:38;4.60;;;4.18;;
18104;SDS011;9179;50.968;3.134;2023-11-21T09:10:06;5.53;;;5.03;;
18104;SDS011;9179;50.968;3.134;2023-11-21T09:12:34;4.90;;;3.63;;
18104;SDS011;9179;50.968;3.134;2023-11-21T09:15:02;6.10;;;4.57;;
18104;SDS011;9179;50.968;3.134;2023-11-21T09:17:32;4.47;;;4.18;;
18104;SDS011;9179;50.968;3.134;2023-11-21T09:20:00;7.70;;;4.15;;
18104;SDS011;9179;50.968;3.134;2023-11-21T09:22:30;4.30;;;3.90;;
18104;SDS011;9179;50.968;3.134;2023-11-21T09:24:57;6.80;;;4.15;;
18104;SDS011;9179;50.968;3.134;2023-11-21T09:27:25;4.93;;;3.58;;
18104;SDS011;9179;50.968;3.134;2023-11-21T09:29:52;4.32;;;3.08;;
18104;SDS011;9179;50.968;3.134;2023-11-21T09:32:19;3.55;;;3.30;;
18104;SDS011;9179;50.968;3.134;2023-11-21T09:34:48;4.90;;;3.05;;
18104;SDS011;9179;50.968;3.134;2023-11-21T09:37:16;4.82;;;2.65;;
18104;SDS011;9179;50.968;3.134;2023-11-21T09:39:44;3.50;;;2.30;;
18104;SDS011;9179;50.968;3.134;2023-11-21T09:42:13;3.45;;;2.53;;
18104;SDS011;9179;50.968;3.134;2023-11-21T09:44:45;2.40;;;2.20;;
18104;SDS011;9179;50.968;3.134;2023-11-21T09:47:18;4.28;;;2.28;;
18104;SDS011;9179;50.968;3.134;2023-11-21T09:49:46;2.45;;;2.25;;
18104;SDS011;9179;50.968;3.134;2023-11-21T09:52:18;3.22;;;1.73;;
18104;SDS011;9179;50.968;3.134;2023-11-21T09:54:52;2.35;;;2.15;;
18104;SDS011;9179;50.968;3.134;2023-11-21T09:57:20;3.38;;;2.13;;
18104;SDS011;9179;50.968;3.134;2023-11-21T09:59:49;4.85;;;2.03;;
18104;SDS011;9179;50.968;3.134;2023-11-21T10:02:20;3.42;;;2.08;;
18104;SDS011;9179;50.968;3.134;2023-11-21T10:04:52;3.70;;;2.00;;
18104;SDS011;9179;50.968;3.134;2023-11-21T10:07:20;2.47;;;1.40;;
18104;SDS011;9179;50.968;3.134;2023-11-21T10:09:47;2.10;;;1.88;;
18104;SDS011;9179;50.968;3.134;2023-11-21T10:12:15;2.47;;;1.60;;
18104;SDS011;9179;50.968;3.134;2023-11-21T10:14:42;3.13;;;1.80;;
18104;SDS011;9179;50.968;3.134;2023-11-21T10:17:12;2.30;;;1.55;;
18104;SDS011;9179;50.968;3.134;2023-11-21T10:19:43;2.08;;;1.98;;
18104;SDS011;9179;50.968;3.134;2023-11-21T10:22:14;2.20;;;1.48;;
18104;SDS011;9179;50.968;3.134;2023-11-21T10:24:42;3.30;;;2.00;;
18104;SDS011;9179;50.968;3.134;2023-11-21T10:27:09;4.43;;;2.45;;
18104;SDS011;9179;50.968;3.134;2023-11-21T10:29:35;3.47;;;2.92;;
18104;SDS011;9179;50.968;3.134;2023-11-21T10:32:02;2.40;;;2.20;;
18104;SDS011;9179;50.968;3.134;2023-11-21T10:34:30;3.88;;;2.40;;
18104;SDS011;9179;50.968;3.134;2023-11-21T10:36:58;5.88;;;2.95;;
18104;SDS011;9179;50.968;3.134;2023-11-21T10:39:26;4.05;;;2.50;;
18104;SDS011;9179;50.968;3.134;2023-11-21T10:41:56;4.75;;;2.83;;
18104;SDS011;9179;50.968;3.134;2023-11-21T10:44:23;4.55;;;3.85;;
18104;SDS011;9179;50.968;3.134;2023-11-21T10:46:51;8.20;;;3.50;;
18104;SDS011;9179;50.968;3.134;2023-11-21T10:49:21;5.03;;;3.33;;
18104;SDS011;9179;50.968;3.134;2023-11-21T10:51:49;3.58;;;3.17;;
18104;SDS011;9179;50.968;3.134;2023-11-21T10:54:18;4.95;;;3.63;;
18104;SDS011;9179;50.968;3.134;2023-11-21T10:56:49;5.05;;;3.00;;
18104;SDS011;9179;50.968;3.134;2023-11-21T10:59:17;3.15;;;2.50;;
18104;SDS011;9179;50.968;3.134;2023-11-21T11:01:46;2.35;;;2.15;;
18104;SDS011;9179;50.968;3.134;2023-11-21T11:04:16;7.97;;;3.08;;
18104;SDS011;9179;50.968;3.134;2023-11-21T11:06:45;3.10;;;2.80;;
18104;SDS011;9179;50.968;3.134;2023-11-21T11:09:17;4.07;;;3.03;;
18104;SDS011;9179;50.968;3.134;2023-11-21T11:11:44;5.70;;;2.28;;
18104;SDS011;9179;50.968;3.134;2023-11-21T11:14:13;3.45;;;2.35;;
18104;SDS011;9179;50.968;3.134;2023-11-21T11:16:41;4.93;;;2.92;;
18104;SDS011;9179;50.968;3.134;2023-11-21T11:19:09;4.82;;;2.88;;
18104;SDS011;9179;50.968;3.134;2023-11-21T11:21:42;6.50;;;2.97;;
18104;SDS011;9179;50.968;3.134;2023-11-21T11:24:32;4.53;;;2.60;;
18104;SDS011;9179;50.968;3.134;2023-11-21T11:27:12;4.60;;;3.38;;
18104;SDS011;9179;50.968;3.134;2023-11-21T11:29:53;2.47;;;2.25;;
18104;SDS011;9179;50.968;3.134;2023-11-21T11:32:31;4.40;;;3.10;;
18104;SDS011;9179;50.968;3.134;2023-11-21T11:35:14;6.25;;;3.22;;
18104;SDS011;9179;50.968;3.134;2023-11-21T11:37:49;8.82;;;3.17;;
18104;SDS011;9179;50.968;3.134;2023-11-21T11:40:16;7.88;;;3.40;;
18104;SDS011;9179;50.968;3.134;2023-11-21T11:42:55;5.75;;;2.88;;
18104;SDS011;9179;50.968;3.134;2023-11-21T11:45:25;3.28;;;2.55;;
18104;SDS011;9179;50.968;3.134;2023-11-21T11:48:00;2.92;;;2.65;;
18104;SDS011;9179;50.968;3.134;2023-11-21T11:50:28;7.68;;;3.00;;
18104;SDS011;9179;50.968;3.134;2023-11-21T11:53:11;6.38;;;2.97;;
18104;SDS011;9179;50.968;3.134;2023-11-21T11:55:38;3.08;;;2.72;;
18104;SDS011;9179;50.968;3.134;2023-11-21T11:58:06;3.65;;;2.38;;
18104;SDS011;9179;50.968;3.134;2023-11-21T12:00:35;4.68;;;2.63;;
18104;SDS011;9179;50.968;3.134;2023-11-21T12:03:08;5.53;;;2.13;;
18104;SDS011;9179;50.968;3.134;2023-11-21T12:05:36;3.33;;;2.55;;
18104;SDS011;9179;50.968;3.134;2023-11-21T12:08:05;7.00;;;2.55;;
18104;SDS011;9179;50.968;3.134;2023-11-21T12:10:34;4.40;;;2.65;;
18104;SDS011;9179;50.968;3.134;2023-11-21T12:13:04;4.13;;;2.72;;
18104;SDS011;9179;50.968;3.134;2023-11-21T12:15:32;4.07;;;2.70;;
18104;SDS011;9179;50.968;3.134;2023-11-21T12:18:01;4.30;;;2.42;;
18104;SDS011;9179;50.968;3.134;2023-11-21T12:20:29;5.38;;;3.25;;
18104;SDS011;9179;50.968;3.134;2023-11-21T12:22:57;7.15;;;2.42;;
18104;SDS011;9179;50.968;3.134;2023-11-21T12:25:26;7.78;;;2.70;;
18104;SDS011;9179;50.968;3.134;2023-11-21T12:27:55;4.55;;;2.50;;
18104;SDS011;9179;50.968;3.134;2023-11-21T12:30:23;4.63;;;2.47;;
18104;SDS011;9179;50.968;3.134;2023-11-21T12:32:54;4.80;;;2.58;;
18104;SDS011;9179;50.968;3.134;2023-11-21T12:35:23;4.38;;;2.72;;
18104;SDS011;9179;50.968;3.134;2023-11-21T12:37:52;3.90;;;2.33;;
18104;SDS011;9179;50.968;3.134;2023-11-21T12:40:22;5.13;;;2.45;;
18104;SDS011;9179;50.968;3.134;2023-11-21T12:42:51;3.08;;;1.92;;
18104;SDS011;9179;50.968;3.134;2023-11-21T12:45:20;3.58;;;1.65;;
18104;SDS011;9179;50.968;3.134;2023-11-21T12:47:51;2.95;;;1.70;;
18104;SDS011;9179;50.968;3.134;2023-11-21T12:50:20;4.25;;;2.00;;
18104;SDS011;9179;50.968;3.134;2023-11-21T12:52:53;5.43;;;2.50;;
18104;SDS011;9179;50.968;3.134;2023-11-21T12:55:24;5.18;;;2.92;;
18104;SDS011;9179;50.968;3.134;2023-11-21T12:57:52;4.00;;;2.20;;
18104;SDS011;9179;50.968;3.134;2023-11-21T13:00:27;2.03;;;1.80;;
18104;SDS011;9179;50.968;3.134;2023-11-21T13:02:58;4.75;;;1.83;;
18104;SDS011;9179;50.968;3.134;2023-11-21T13:05:27;5.60;;;2.45;;
18104;SDS011;9179;50.968;3.134;2023-11-21T13:07:57;2.22;;;1.70;;
18104;SDS011;9179;50.968;3.134;2023-11-21T13:10:27;9.18;;;2.25;;
18104;SDS011;9179;50.968;3.134;2023-11-21T13:12:57;3.17;;;1.70;;
18104;SDS011;9179;50.968;3.134;2023-11-21T13:15:25;3.90;;;1.50;;
18104;SDS011;9179;50.968;3.134;2023-11-21T13:17:53;3.35;;;1.83;;
18104;SDS011;9179;50.968;3.134;2023-11-21T13:20:22;2.08;;;1.70;;
18104;SDS011;9179;50.968;3.134;2023-11-21T13:22:51;6.55;;;1.95;;
18104;SDS011;9179;50.968;3.134;2023-11-21T13:25:22;1.83;;;1.70;;
18104;SDS011;9179;50.968;3.134;2023-11-21T13:27:52;4.07;;;1.50;;
18104;SDS011;9179;50.968;3.134;2023-11-21T13:30:19;2.15;;;1.85;;
18104;SDS011;9179;50.968;3.134;2023-11-21T13:32:51;1.52;;;1.42;;
18104;SDS011;9179;50.968;3.134;2023-11-21T13:35:22;3.17;;;1.90;;
18104;SDS011;9179;50.968;3.134;2023-11-21T13:37:57;8.40;;;2.42;;
18104;SDS011;9179;50.968;3.134;2023-11-21T13:40:31;2.60;;;1.42;;
18104;SDS011;9179;50.968;3.134;2023-11-21T13:42:59;2.20;;;2.00;;
18104;SDS011;9179;50.968;3.134;2023-11-21T13:45:29;5.63;;;2.38;;
18104;SDS011;9179;50.968;3.134;2023-11-21T13:47:56;3.47;;;2.03;;
18104;SDS011;9179;50.968;3.134;2023-11-21T13:50:24;1.63;;;1.52;;
18104;SDS011;9179;50.968;3.134;2023-11-21T13:52:58;2.35;;;1.30;;
18104;SDS011;9179;50.968;3.134;2023-11-21T13:55:34;2.10;;;1.40;;
18104;SDS011;9179;50.968;3.134;2023-11-21T13:58:02;3.03;;;1.90;;
18104;SDS011;9179;50.968;3.134;2023-11-21T14:00:34;5.07;;;1.90;;
18104;SDS011;9179;50.968;3.134;2023-11-21T14:03:11;4.68;;;1.58;;
18104;SDS011;9179;50.968;3.134;2023-11-21T14:05:46;1.67;;;1.58;;
18104;SDS011;9179;50.968;3.134;2023-11-21T14:08:18;2.83;;;1.80;;
18104;SDS011;9179;50.968;3.134;2023-11-21T14:10:48;2.33;;;2.17;;
18104;SDS011;9179;50.968;3.134;2023-11-21T14:13:20;1.17;;;1.17;;
18104;SDS011;9179;50.968;3.134;2023-11-21T14:15:48;3.60;;;1.83;;
18104;SDS011;9179;50.968;3.134;2023-11-21T14:18:19;2.08;;;1.88;;
18104;SDS011;9179;50.968;3.134;2023-11-21T14:20:51;2.28;;;1.30;;
18104;SDS011;9179;50.968;3.134;2023-11-21T14:23:19;2.55;;;1.80;;
18104;SDS011;9179;50.968;3.134;2023-11-21T14:25:48;2.15;;;1.10;;
18104;SDS011;9179;50.968;3.134;2023-11-21T14:28:17;1.30;;;1.08;;
18104;SDS011;9179;50.968;3.134;2023-11-21T14:30:44;2.13;;;1.15;;
18104;SDS011;9179;50.968;3.134;2023-11-21T14:33:11;2.22;;;1.55;;
18104;SDS011;9179;50.968;3.134;2023-11-21T14:35:39;1.98;;;1.08;;
18104;SDS011;9179;50.968;3.134;2023-11-21T14:38:05;1.63;;;1.23;;
18104;SDS011;9179;50.968;3.134;2023-11-21T14:40:34;1.65;;;1.25;;
18104;SDS011;9179;50.968;3.134;2023-11-21T14:43:01;1.40;;;1.27;;
18104;SDS011;9179;50.968;3.134;2023-11-21T14:45:30;2.00;;;1.50;;
18104;SDS011;9179;50.968;3.134;2023-11-21T14:47:57;2.22;;;1.50;;
18104;SDS011;9179;50.968;3.134;2023-11-21T14:50:31;1.90;;;1.55;;
18104;SDS011;9179;50.968;3.134;2023-11-21T14:53:15;1.52;;;1.40;;
18104;SDS011;9179;50.968;3.134;2023-11-21T14:55:43;1.48;;;1.38;;
18104;SDS011;9179;50.968;3.134;2023-11-21T14:58:22;2.33;;;1.40;;
18104;SDS011;9179;50.968;3.134;2023-11-21T15:00:54;2.33;;;1.70;;
18104;SDS011;9179;50.968;3.134;2023-11-21T15:03:26;1.73;;;1.23;;
18104;SDS011;9179;50.968;3.134;2023-11-21T15:06:15;1.48;;;1.38;;
18104;SDS011;9179;50.968;3.134;2023-11-21T15:08:51;3.08;;;1.52;;